Time;durP1;ratioP1;P1;durP2;ratioP2;P2;SDS_P1;SDS_P2;PMS_P1;PMS_P2;Temp;Humidity;BMP_temperature;BMP_pressure;BME280_temperature;BME280_humidity;BME280_pressure;Samples;Min_cycle;Max_cycle;Signal;HPM_P1;HPM_P2
2022/06/07 00:02:11;;;;;;;3.67;0.95;;;;;;;25.85;38.88;101345.69;5115257;28;20534;-51
2022/06/07 00:04:40;;;;;;;3.42;1.13;;;;;;;25.85;38.97;101343.06;5115100;28;20058;-48
2022/06/07 00:07:11;;;;;;;3.53;0.95;;;;;;;25.87;39.00;101351.84;5114012;28;20491;-49
2022/06/07 00:09:39;;;;;;;4.03;1.00;;;;;;;25.84;39.08;101348.31;5114188;28;20461;-45
2022/06/07 00:12:08;;;;;;;3.90;1.17;;;;;;;25.86;39.04;101349.22;5115306;28;20028;-48
2022/06/07 00:14:37;;;;;;;5.88;1.15;;;;;;;25.85;39.15;101342.19;5114937;28;20075;-45
2022/06/07 00:17:06;;;;;;;4.57;1.55;;;;;;;25.79;39.02;101338.63;5114017;28;20019;-49
2022/06/07 00:19:35;;;;;;;5.00;1.20;;;;;;;25.78;39.19;101333.38;5113340;28;20046;-44
2022/06/07 00:22:05;;;;;;;4.00;0.80;;;;;;;25.67;38.95;101314.84;5097300;28;20024;-45
2022/06/07 00:24:34;;;;;;;3.70;1.20;;;;;;;25.76;39.04;101325.44;5115139;28;20065;-46
2022/06/07 00:27:03;;;;;;;3.08;0.95;;;;;;;25.83;39.06;101334.28;5115063;28;20023;-50
2022/06/07 00:29:32;;;;;;;4.75;1.17;;;;;;;25.81;39.07;101338.66;5113608;28;20024;-45
2022/06/07 00:32:01;;;;;;;2.85;1.02;;;;;;;25.79;38.89;101337.75;5114902;28;20402;-48
2022/06/07 00:34:29;;;;;;;4.05;1.10;;;;;;;25.81;38.72;101336.03;5113109;28;20109;-45
2022/06/07 00:36:58;;;;;;;5.13;1.15;;;;;;;25.81;38.85;101324.63;5112923;28;20031;-46
2022/06/07 00:39:27;;;;;;;3.47;1.00;;;;;;;25.85;38.43;101321.19;5113195;28;20024;-44
2022/06/07 00:41:55;;;;;;;4.78;1.20;;;;;;;25.82;38.72;101327.25;5114473;28;20035;-44
2022/06/07 00:44:28;;;;;;;5.85;1.50;;;;;;;25.85;38.55;101324.66;5114815;28;20373;-45
2022/06/07 00:47:00;;;;;;;4.40;1.42;;;;;;;25.82;38.80;101315.88;5114570;28;20060;-45
2022/06/07 00:49:36;;;;;;;3.00;1.00;;;;;;;25.78;38.63;101320.22;5113267;28;20039;-44
2022/06/07 00:52:05;;;;;;;3.70;1.23;;;;;;;25.76;38.76;101322.81;5112236;28;20076;-45
2022/06/07 00:54:34;;;;;;;2.90;1.05;;;;;;;25.76;39.11;101316.69;5113388;28;20023;-48
2022/06/07 00:57:03;;;;;;;4.15;1.08;;;;;;;25.76;38.98;101311.44;5096460;28;20051;-45
2022/06/07 00:59:31;;;;;;;6.00;1.23;;;;;;;25.79;38.85;101322.88;5112692;28;20589;-50
2022/06/07 01:02:00;;;;;;;4.45;1.20;;;;;;;25.73;38.91;101320.16;5114296;28;20023;-47
2022/06/07 01:04:29;;;;;;;5.65;1.35;;;;;;;25.71;38.70;101316.66;5113126;28;20028;-45
2022/06/07 01:12:33;;;;;;;3.75;1.10;;;;;;;25.74;38.96;101310.53;5113811;28;20028;-48
2022/06/07 01:15:03;;;;;;;2.13;0.80;;;;;;;25.63;39.00;101305.16;5112673;28;20039;-45
2022/06/07 01:17:31;;;;;;;3.92;0.93;;;;;;;25.73;38.60;101308.78;5112573;28;20023;-44
2022/06/07 01:20:00;;;;;;;4.40;1.23;;;;;;;25.70;38.68;101308.75;5112796;28;20430;-45
2022/06/07 01:22:28;;;;;;;2.53;0.90;;;;;;;25.73;38.73;101308.78;5112327;28;20027;-45
2022/06/07 01:24:57;;;;;;;5.47;1.13;;;;;;;25.69;38.87;101314.84;5113842;28;20413;-50
2022/06/07 01:27:25;;;;;;;5.78;1.35;;;;;;;25.67;38.96;101296.47;5113993;28;20027;-45
2022/06/07 01:29:54;;;;;;;4.75;0.95;;;;;;;25.75;38.88;101312.31;5114063;28;20043;-49
2022/06/07 01:32:23;;;;;;;4.38;1.27;;;;;;;25.70;38.99;101309.63;5114252;28;20016;-50
2022/06/07 01:34:53;;;;;;;2.33;0.85;;;;;;;25.67;38.80;101301.72;5113851;28;20107;-46
2022/06/07 01:37:21;;;;;;;5.15;1.15;;;;;;;25.64;38.68;101296.41;5113916;28;20115;-48
2022/06/07 01:42:37;;;;;;;2.60;0.80;;;;;;;25.71;38.68;101308.78;5092043;28;20435;-52
2022/06/07 01:45:06;;;;;;;2.67;0.90;;;;;;;25.67;38.92;101298.19;5113894;28;20473;-44
2022/06/07 01:47:36;;;;;;;3.03;0.98;;;;;;;25.69;38.71;101301.72;5112535;28;20032;-45
2022/06/07 01:50:05;;;;;;;2.47;0.70;;;;;;;25.58;38.96;101280.56;5095818;28;20024;-45
2022/06/07 01:52:35;;;;;;;3.08;0.95;;;;;;;25.74;38.62;101313.19;5112115;28;20024;-48
2022/06/07 01:55:05;;;;;;;3.25;1.15;;;;;;;25.68;38.85;101302.59;5112665;28;20028;-46
2022/06/07 01:57:34;;;;;;;4.32;1.27;;;;;;;25.70;38.81;101300.84;5112082;28;20024;-45
2022/06/07 02:00:04;;;;;;;2.53;0.90;;;;;;;25.68;38.91;101300.84;5112310;28;20031;-48
2022/06/07 02:02:32;;;;;;;3.60;0.73;;;;;;;25.64;38.83;101296.41;5113554;28;20076;-45
2022/06/07 02:05:01;;;;;;;2.13;0.90;;;;;;;25.71;38.80;101306.16;5117585;28;20058;-50
2022/06/07 02:07:30;;;;;;;3.40;1.00;;;;;;;25.68;39.01;101298.22;5117772;28;20365;-49
2022/06/07 02:09:58;;;;;;;2.45;0.90;;;;;;;25.65;38.88;101298.19;5117639;28;20032;-45
2022/06/07 02:12:27;;;;;;;1.73;0.65;;;;;;;25.73;38.84;101303.53;5116119;28;20054;-48
2022/06/07 02:14:55;;;;;;;5.72;1.35;;;;;;;25.68;38.76;101305.22;5117357;27;20135;-46
2022/06/07 02:17:24;;;;;;;2.63;1.20;;;;;;;25.66;38.90;101305.22;5116342;28;20035;-48
2022/06/07 02:19:52;;;;;;;3.90;0.98;;;;;;;25.71;38.81;101302.63;5117567;28;20024;-45
2022/06/07 02:22:21;;;;;;;1.90;0.80;;;;;;;25.69;38.94;101301.72;5115466;28;20043;-45
2022/06/07 02:24:49;;;;;;;4.50;1.25;;;;;;;25.62;38.56;101301.66;5098670;28;20031;-45
2022/06/07 02:27:19;;;;;;;4.00;0.90;;;;;;;25.60;38.45;101290.25;5117098;28;20034;-46
2022/06/07 02:29:49;;;;;;;2.33;0.85;;;;;;;25.64;38.79;101285.91;5115999;28;20388;-50
2022/06/07 02:32:29;;;;;;;3.10;0.80;;;;;;;25.65;38.40;101292.06;5116113;28;20023;-51
2022/06/07 02:35:00;;;;;;;2.15;0.55;;;;;;;25.72;38.67;101293.88;5117260;28;20028;-45
2022/06/07 02:37:29;;;;;;;5.38;1.33;;;;;;;25.68;38.51;101273.69;5098839;28;20027;-46
2022/06/07 02:39:58;;;;;;;3.95;1.08;;;;;;;25.71;38.52;101282.50;5116751;28;20034;-49
2022/06/07 02:42:28;;;;;;;3.78;1.10;;;;;;;25.67;38.49;101280.69;5098930;28;20384;-48
2022/06/07 02:44:57;;;;;;;4.03;1.00;;;;;;;25.65;38.73;101273.66;5115623;28;20019;-45
2022/06/07 02:47:26;;;;;;;3.15;0.85;;;;;;;25.59;38.90;101271.84;5115798;28;20027;-48
2022/06/07 02:49:54;;;;;;;3.67;1.20;;;;;;;25.52;39.01;101260.38;5098495;28;20481;-46
2022/06/07 02:52:23;;;;;;;2.85;0.90;;;;;;;25.62;38.83;101267.50;5116682;28;20068;-49
2022/06/07 02:54:52;;;;;;;3.55;1.15;;;;;;;25.58;39.10;101270.06;5115070;28;20034;-46
2022/06/07 02:57:20;;;;;;;2.70;0.85;;;;;;;25.60;39.06;101269.25;5116484;27;20114;-44
2022/06/07 02:59:49;;;;;;;2.97;0.88;;;;;;;25.60;38.68;101269.25;5115376;28;20492;-47
2022/06/07 03:02:16;;;;;;;2.85;1.20;;;;;;;25.63;38.58;101268.38;5116719;28;20028;-50
2022/06/07 03:04:45;;;;;;;2.95;0.82;;;;;;;25.67;38.66;101270.19;5116365;28;20088;-48
2022/06/07 03:07:14;;;;;;;2.15;0.80;;;;;;;25.71;38.62;101264.09;5114953;28;20024;-52
2022/06/07 03:09:41;;;;;;;3.75;0.93;;;;;;;25.65;38.73;101271.03;5116378;28;20393;-51
2022/06/07 03:12:10;;;;;;;2.92;0.90;;;;;;;25.54;38.25;101242.91;5115061;28;20031;-48
2022/06/07 03:14:39;;;;;;;2.65;0.80;;;;;;;25.69;38.72;101263.22;5114855;28;20048;-45
2022/06/07 03:17:11;;;;;;;3.25;0.93;;;;;;;25.66;38.59;101264.91;5116235;27;20729;-48
2022/06/07 03:19:40;;;;;;;2.70;0.73;;;;;;;25.65;38.45;101269.28;5114805;28;20032;-47
2022/06/07 03:22:09;;;;;;;3.85;1.10;;;;;;;25.69;38.64;101273.72;5114657;28;20542;-47
2022/06/07 03:24:37;;;;;;;5.95;0.90;;;;;;;25.66;38.75;101260.53;5115409;28;20097;-48
2022/06/07 03:27:05;;;;;;;5.70;1.08;;;;;;;25.73;38.62;101264.97;5115745;28;20028;-46
2022/06/07 03:29:34;;;;;;;4.93;1.60;;;;;;;25.72;38.75;101273.75;5115673;28;20042;-52
2022/06/07 03:32:03;;;;;;;2.25;0.90;;;;;;;25.69;38.30;101264.94;5116117;28;20477;-45
2022/06/07 03:34:31;;;;;;;2.17;0.90;;;;;;;25.70;38.19;101262.34;5115963;28;20510;-51
2022/06/07 03:37:00;;;;;;;1.38;0.55;;;;;;;25.73;38.36;101269.38;5115871;28;20081;-48
2022/06/07 03:39:30;;;;;;;4.40;1.17;;;;;;;25.75;38.43;101267.63;5115289;28;20031;-50
2022/06/07 03:41:58;;;;;;;3.42;0.80;;;;;;;25.71;38.67;101276.34;5115981;28;20039;-52
2022/06/07 03:44:27;;;;;;;5.50;1.35;;;;;;;25.68;38.79;101269.31;5115704;28;20034;-51
2022/06/07 03:46:55;;;;;;;3.38;0.90;;;;;;;25.63;38.66;101269.28;5115705;28;20027;-49
2022/06/07 03:49:24;;;;;;;2.97;0.82;;;;;;;25.60;38.69;101274.50;5115592;28;20055;-46
2022/06/07 03:51:52;;;;;;;3.17;1.02;;;;;;;25.59;38.74;101264.84;5115153;28;20028;-46
2022/06/07 03:54:21;;;;;;;4.78;1.00;;;;;;;25.67;38.66;101271.91;5114765;28;20026;-49
2022/06/07 03:56:49;;;;;;;2.70;0.82;;;;;;;25.70;38.64;101274.59;5114068;28;20080;-49
2022/06/07 03:59:18;;;;;;;6.05;1.17;;;;;;;25.70;38.53;101278.09;5115516;28;20032;-47
2022/06/07 04:01:47;;;;;;;2.40;0.65;;;;;;;25.67;38.55;101275.44;5115247;28;20429;-51
2022/06/07 04:04:15;;;;;;;3.38;0.88;;;;;;;25.66;38.52;101278.03;5115393;28;20023;-48
2022/06/07 04:08:10;;;;;;;3.10;1.05;;;;;;;25.59;38.64;101266.56;5115174;28;20493;-49
2022/06/07 04:09:43;;;;;;;4.38;1.10;;;;;;;25.67;38.80;101275.44;5114813;28;20465;-48
2022/06/07 04:12:14;;;;;;;4.15;1.02;;;;;;;25.72;38.37;101278.13;5115343;28;20034;-51
2022/06/07 04:14:44;;;;;;;2.30;0.70;;;;;;;25.70;38.24;101278.09;5114669;28;20490;-52
2022/06/07 04:17:14;;;;;;;2.40;0.77;;;;;;;25.71;38.21;101276.34;5114926;28;20030;-52
2022/06/07 04:19:43;;;;;;;3.22;0.93;;;;;;;25.71;38.46;101278.97;5114905;28;20034;-51
2022/06/07 04:22:12;;;;;;;2.65;0.82;;;;;;;25.59;38.30;101270.09;5114935;28;20106;-47
2022/06/07 04:24:40;;;;;;;5.47;1.33;;;;;;;25.65;38.56;101282.41;5114736;27;20473;-49
2022/06/07 04:27:09;;;;;;;2.95;0.90;;;;;;;25.59;38.51;101275.34;5114495;28;20020;-48
2022/06/07 04:29:38;;;;;;;3.75;0.70;;;;;;;25.62;38.51;101277.13;5114998;28;20024;-52
2022/06/07 04:32:06;;;;;;;3.03;0.80;;;;;;;25.63;38.72;101268.38;5115045;28;20054;-52
2022/06/07 04:34:35;;;;;;;2.90;0.95;;;;;;;25.65;38.36;101271.91;5114119;28;20020;-48
2022/06/07 04:37:03;;;;;;;4.45;1.30;;;;;;;25.69;38.34;101272.81;5114765;28;20381;-49
2022/06/07 04:39:32;;;;;;;2.47;0.88;;;;;;;25.57;38.28;101244.66;5114565;28;20046;-49
2022/06/07 04:42:01;;;;;;;3.90;1.20;;;;;;;25.71;38.25;101271.09;5114756;28;20024;-48
2022/06/07 04:44:30;;;;;;;3.60;1.27;;;;;;;25.72;38.26;101281.63;5113331;28;20027;-49
2022/06/07 04:46:58;;;;;;;5.50;1.15;;;;;;;25.71;38.44;101279.88;5114364;28;20031;-51
2022/06/07 04:49:28;;;;;;;5.65;1.45;;;;;;;25.71;38.26;101286.84;5114563;28;20373;-53
2022/06/07 04:51:57;;;;;;;2.65;0.90;;;;;;;25.71;38.31;101278.97;5114305;28;20029;-52
2022/06/07 04:54:25;;;;;;;2.60;1.02;;;;;;;25.74;38.21;101279.00;5114588;28;20019;-48
2022/06/07 04:56:55;;;;;;;4.53;1.30;;;;;;;25.75;38.46;101286.03;5114262;28;20370;-48
2022/06/07 04:59:24;;;;;;;4.43;1.23;;;;;;;25.73;38.28;101290.38;5114459;28;20030;-49
2022/06/07 05:01:51;;;;;;;3.53;0.90;;;;;;;25.69;38.14;101294.75;5114216;28;20059;-53
2022/06/07 05:04:19;;;;;;;3.05;1.00;;;;;;;25.71;38.01;101293.00;5112946;28;20028;-52
2022/06/07 05:06:48;;;;;;;3.65;0.90;;;;;;;25.68;38.45;101292.06;5114236;28;20111;-45
2022/06/07 05:09:22;;;;;;;2.20;0.85;;;;;;;25.71;38.15;101295.63;5114329;28;20024;-51
2022/06/07 05:11:51;;;;;;;4.40;0.73;;;;;;;25.72;38.16;101289.53;5113624;28;20520;-47
2022/06/07 05:14:20;;;;;;;4.22;1.35;;;;;;;25.73;38.26;101299.13;5113698;28;20047;-52
2022/06/07 05:16:49;;;;;;;4.15;1.05;;;;;;;25.76;38.10;101293.91;5113908;28;20055;-46
2022/06/07 05:19:18;;;;;;;5.45;0.95;;;;;;;25.84;37.79;101301.00;5113476;28;20016;-50
2022/06/07 05:21:47;;;;;;;3.47;0.93;;;;;;;25.81;38.10;101298.34;5113787;28;20103;-51
2022/06/07 05:24:16;;;;;;;4.35;0.82;;;;;;;25.88;37.83;101302.81;5114029;28;20031;-52
2022/06/07 05:26:50;;;;;;;4.00;0.80;;;;;;;25.82;37.99;101290.47;5113942;28;20028;-52
2022/06/07 05:29:23;;;;;;;3.40;1.20;;;;;;;25.78;38.26;101294.81;5112319;28;20062;-48
2022/06/07 05:31:51;;;;;;;3.65;1.02;;;;;;;25.81;37.98;101287.84;5113534;28;20024;-49
2022/06/07 05:34:20;;;;;;;4.13;1.23;;;;;;;25.78;37.97;101294.81;5113645;28;20104;-48
2022/06/07 05:36:48;;;;;;;4.53;0.77;;;;;;;25.83;37.71;101296.63;5112404;28;20141;-51
2022/06/07 05:39:28;;;;;;;3.00;0.77;;;;;;;25.80;38.10;101294.84;5113186;28;20055;-48
2022/06/07 05:41:57;;;;;;;2.17;0.93;;;;;;;25.83;38.16;101304.50;5113725;28;20051;-50
2022/06/07 05:44:26;;;;;;;2.47;0.88;;;;;;;25.84;37.98;101301.00;5113907;28;20026;-51
2022/06/07 05:46:55;;;;;;;3.25;0.73;;;;;;;25.90;37.79;101298.44;5113575;28;20378;-48
2022/06/07 05:49:23;;;;;;;2.88;0.85;;;;;;;25.89;37.90;101288.81;5113727;28;20022;-49
2022/06/07 05:51:51;;;;;;;2.65;0.77;;;;;;;25.85;38.08;101284.38;5113648;28;20047;-50
2022/06/07 05:54:19;;;;;;;4.03;1.08;;;;;;;25.85;37.81;101287.00;5113549;28;20032;-52
2022/06/07 05:56:48;;;;;;;2.42;0.68;;;;;;;25.94;37.69;101287.09;5112684;28;20019;-48
2022/06/07 05:59:16;;;;;;;3.20;0.85;;;;;;;25.90;37.63;101295.81;5113342;28;20024;-51
2022/06/07 06:01:45;;;;;;;2.60;0.82;;;;;;;25.91;37.84;101287.94;5113152;28;20127;-48
2022/06/07 06:04:13;;;;;;;1.67;0.73;;;;;;;25.93;37.84;101283.59;5113289;28;20418;-46
2022/06/07 06:06:42;;;;;;;1.63;0.75;;;;;;;25.94;38.04;101288.00;5113581;28;20077;-47
2022/06/07 06:11:58;;;;;;;3.22;0.90;;;;;;;25.92;37.79;101294.97;5109087;28;20566;-52
2022/06/07 06:14:27;;;;;;;1.73;0.70;;;;;;;25.99;37.96;101295.00;5112723;28;20035;-48
2022/06/07 06:16:55;;;;;;;3.10;0.77;;;;;;;26.02;37.78;101297.69;5112895;28;20419;-45
2022/06/07 06:19:24;;;;;;;3.50;0.90;;;;;;;26.00;37.79;101300.31;5112320;28;20024;-52
2022/06/07 06:21:53;;;;;;;4.55;1.30;;;;;;;26.00;37.65;101288.88;5113210;28;20023;-53
2022/06/07 06:24:23;;;;;;;1.80;0.55;;;;;;;25.96;37.67;101282.72;5112217;28;20138;-49
2022/06/07 06:26:54;;;;;;;3.25;1.00;;;;;;;26.05;37.64;101309.13;5113280;28;20024;-48
2022/06/07 06:29:24;;;;;;;3.97;1.10;;;;;;;25.97;37.76;101310.78;5112035;28;20053;-51
2022/06/07 06:31:53;;;;;;;2.63;1.02;;;;;;;26.06;37.93;101315.25;5113454;28;20027;-51
2022/06/07 06:34:22;;;;;;;2.58;0.75;;;;;;;26.03;38.05;101315.22;5113463;28;20031;-52
2022/06/07 06:36:50;;;;;;;4.95;1.00;;;;;;;26.02;38.05;101313.44;5095354;28;20051;-52
2022/06/07 06:39:19;;;;;;;6.43;0.95;;;;;;;26.01;37.99;101316.94;5112792;28;20024;-49
2022/06/07 06:41:48;;;;;;;5.45;0.90;;;;;;;26.06;37.79;101324.00;5113255;28;20028;-48
2022/06/07 06:44:15;;;;;;;4.07;0.73;;;;;;;26.06;38.16;101320.50;5113274;28;20165;-50
2022/06/07 06:46:47;;;;;;;5.85;1.00;;;;;;;26.04;38.10;101319.59;5111768;28;20038;-51
2022/06/07 06:49:15;;;;;;;2.20;0.85;;;;;;;26.04;37.94;101320.50;5113318;28;20367;-45
2022/06/07 06:51:44;;;;;;;3.47;0.80;;;;;;;26.01;37.91;101324.81;5116376;28;20092;-46
2022/06/07 06:54:14;;;;;;;3.40;0.60;;;;;;;26.04;38.08;101325.75;5116186;28;20027;-52
2022/06/07 06:56:43;;;;;;;1.35;0.35;;;;;;;26.04;37.73;101325.75;5115216;28;20020;-51
2022/06/07 06:59:13;;;;;;;3.63;0.70;;;;;;;26.05;37.84;101330.16;5116102;28;20032;-45
2022/06/07 07:01:42;;;;;;;1.63;0.55;;;;;;;26.07;37.97;101324.91;5116735;28;20027;-49
2022/06/07 07:04:17;;;;;;;1.48;0.68;;;;;;;26.04;37.89;101311.72;5116692;28;20035;-46
2022/06/07 07:06:46;;;;;;;2.20;0.93;;;;;;;26.06;38.00;101321.38;5116515;28;20034;-50
2022/06/07 07:09:17;;;;;;;3.13;0.60;;;;;;;26.10;37.82;101330.19;5115487;28;20028;-48
2022/06/07 07:11:48;;;;;;;7.25;1.00;;;;;;;26.04;37.96;101328.41;5116395;28;20023;-45
2022/06/07 07:14:17;;;;;;;5.18;1.00;;;;;;;26.03;38.35;101318.75;5116120;28;20059;-51
2022/06/07 07:16:48;;;;;;;2.13;0.70;;;;;;;26.01;38.39;101333.63;5114904;28;20462;-51
2022/06/07 07:19:20;;;;;;;6.07;0.90;;;;;;;26.06;38.35;101331.03;5115986;28;20066;-45
2022/06/07 07:21:51;;;;;;;3.88;1.17;;;;;;;26.04;38.32;101325.75;5116177;28;20035;-45
2022/06/07 07:24:22;;;;;;;5.32;1.50;;;;;;;25.98;38.64;101337.97;5116346;28;20024;-47
2022/06/07 07:26:51;;;;;;;7.30;1.10;;;;;;;25.96;38.45;101334.44;5115608;28;20111;-48
2022/06/07 07:29:21;;;;;;;3.13;1.00;;;;;;;25.99;38.33;101330.09;5114679;28;20469;-48
2022/06/07 07:31:50;;;;;;;4.10;0.60;;;;;;;26.02;38.44;101334.47;5115813;28;20393;-47
2022/06/07 07:34:18;;;;;;;5.72;1.30;;;;;;;26.06;38.48;101331.88;5114756;28;20032;-51
2022/06/07 07:36:49;;;;;;;3.75;1.08;;;;;;;26.14;38.27;101336.38;5114309;28;20388;-47
2022/06/07 07:39:18;;;;;;;6.43;1.10;;;;;;;26.20;38.30;101334.69;5115711;28;20031;-47
2022/06/07 07:41:51;;;;;;;9.75;1.63;;;;;;;26.20;37.85;101336.47;5114930;28;20051;-51
2022/06/07 07:44:20;;;;;;;5.70;1.08;;;;;;;26.21;37.94;101332.97;5115330;28;20088;-48
2022/06/07 07:46:51;;;;;;;5.05;1.13;;;;;;;26.21;38.09;101328.56;5114260;28;20424;-52
2022/06/07 07:49:21;;;;;;;3.70;1.05;;;;;;;26.16;38.39;101334.66;5114850;28;20024;-55
2022/06/07 07:51:51;;;;;;;6.85;0.80;;;;;;;26.17;38.32;101332.03;5115007;28;20027;-53
2022/06/07 07:54:21;;;;;;;4.15;1.02;;;;;;;26.18;38.27;101341.69;5115871;28;20081;-52
2022/06/07 07:56:50;;;;;;;6.50;0.98;;;;;;;26.17;38.27;101337.28;5115549;28;20023;-49
2022/06/07 07:59:19;;;;;;;3.65;1.02;;;;;;;26.22;38.14;101340.84;5115336;28;20039;-52
2022/06/07 08:01:49;;;;;;;3.85;0.80;;;;;;;26.22;38.42;101342.63;5113878;28;20022;-55
2022/06/07 08:04:18;;;;;;;5.30;0.82;;;;;;;26.30;38.12;101335.66;5115548;28;20033;-53
2022/06/07 08:06:46;;;;;;;3.28;0.85;;;;;;;26.30;38.10;101327.78;5114957;28;20023;-46
2022/06/07 08:09:16;;;;;;;3.67;0.80;;;;;;;26.45;38.23;101337.56;5115254;28;20423;-55
2022/06/07 08:11:45;;;;;;;3.03;0.88;;;;;;;26.52;38.30;101331.47;5115273;28;20024;-54
2022/06/07 08:14:16;;;;;;;2.78;0.95;;;;;;;26.57;38.14;101341.16;5114900;28;20039;-55
2022/06/07 08:16:44;;;;;;;3.95;0.93;;;;;;;26.61;37.99;101333.28;5113990;28;20420;-48
2022/06/07 08:19:13;;;;;;;3.42;0.80;;;;;;;26.64;38.10;101330.69;5114309;28;20023;-50
2022/06/07 08:21:42;;;;;;;6.35;1.45;;;;;;;26.51;38.68;101336.72;5114799;28;20051;-54
2022/06/07 08:24:11;;;;;;;12.43;2.28;;;;;;;26.14;40.08;101328.50;5114821;28;20031;-47
2022/06/07 08:26:39;;;;;;;5.20;1.38;;;;;;;25.77;41.03;101332.47;5114894;28;20019;-49
2022/06/07 08:29:08;;;;;;;11.50;2.72;;;;;;;25.10;42.75;101325.47;5114683;28;20392;-55
2022/06/07 08:31:37;;;;;;;7.15;2.08;;;;;;;24.79;43.30;101334.66;5114545;28;20081;-55
2022/06/07 08:37:37;;;;;;;11.32;2.40;;;;;;;24.51;43.89;101329.81;5107560;28;20508;-49
2022/06/07 08:39:40;;;;;;;11.10;2.97;;;;;;;24.19;44.52;101337.13;5110622;28;20088;-54
2022/06/07 08:42:32;;;;;;;8.38;1.70;;;;;;;24.17;44.92;101329.22;5113144;28;20054;-45
2022/06/07 08:45:06;;;;;;;10.90;2.92;;;;;;;24.20;44.77;101324.06;5111202;28;20047;-55
2022/06/07 08:47:42;;;;;;;10.30;2.58;;;;;;;24.17;45.35;101338.81;5115039;28;20047;-55
2022/06/07 08:50:18;;;;;;;10.68;2.53;;;;;;;24.04;45.54;101354.31;5096845;28;20016;-55
2022/06/07 08:52:47;;;;;;;9.40;2.00;;;;;;;23.78;45.86;101352.06;5114662;28;20023;-52
2022/06/07 08:55:21;;;;;;;9.38;1.75;;;;;;;23.36;46.33;101359.06;5113826;28;20058;-53
2022/06/07 08:57:58;;;;;;;5.15;1.20;;;;;;;22.88;48.51;101364.91;5114021;28;20026;-54
2022/06/07 09:00:29;;;;;;;4.32;1.20;;;;;;;22.55;49.08;101340.56;5114720;28;20107;-48
2022/06/07 09:03:20;;;;;;;6.82;1.58;;;;;;;22.74;48.42;101348.88;5112760;28;20442;-49
2022/06/07 09:06:15;;;;;;;9.45;1.90;;;;;;;22.86;48.49;101348.28;5107257;28;20035;-49
2022/06/07 09:08:49;;;;;;;9.57;2.20;;;;;;;22.91;47.85;101338.81;5112624;28;20030;-55
2022/06/07 09:14:11;;;;;;;6.63;1.83;;;;;;;23.03;47.50;101328.63;5112710;28;20047;-54
2022/06/07 09:16:42;;;;;;;6.65;1.80;;;;;;;22.98;47.69;101332.88;5114074;28;20042;-46
2022/06/07 09:19:13;;;;;;;12.60;1.90;;;;;;;23.00;47.50;101327.69;5113989;28;20049;-45
2022/06/07 09:21:44;;;;;;;12.05;2.25;;;;;;;23.14;47.29;101323.66;5113703;28;20058;-54
2022/06/07 09:24:27;;;;;;;8.02;1.60;;;;;;;23.24;47.13;101323.88;5114225;28;20438;-44
2022/06/07 09:27:07;;;;;;;7.95;2.55;;;;;;;23.17;47.38;101325.44;5114038;27;20442;-55
2022/06/07 09:29:38;;;;;;;8.63;2.35;;;;;;;23.08;47.44;101313.03;5114165;28;20066;-44
2022/06/07 09:32:12;;;;;;;9.20;2.08;;;;;;;23.03;47.30;101297.25;5113811;28;20533;-55
2022/06/07 09:34:54;;;;;;;10.57;2.70;;;;;;;23.15;48.33;101319.28;5114153;28;20177;-52
2022/06/07 09:37:29;;;;;;;11.20;2.63;;;;;;;23.11;48.48;101312.22;5113899;28;20043;-55
2022/06/07 09:40:11;;;;;;;14.82;3.42;;;;;;;22.86;48.72;101317.75;5113497;28;20508;-49
2022/06/07 09:42:40;;;;;;;11.57;2.15;;;;;;;22.96;48.74;101328.47;5111968;28;20441;-46
2022/06/07 09:45:37;;;;;;;11.18;2.30;;;;;;;22.88;48.91;101328.28;5111974;28;20059;-46
2022/06/07 09:48:26;;;;;;;14.77;2.92;;;;;;;22.80;49.74;101324.59;5111208;28;20027;-49
2022/06/07 09:50:59;;;;;;;11.85;2.70;;;;;;;22.77;49.45;101331.50;5110744;28;20036;-55
2022/06/07 09:53:33;;;;;;;14.05;4.03;;;;;;;22.80;48.94;101322.88;5113336;28;20023;-47
2022/06/07 09:56:12;;;;;;;15.75;3.03;;;;;;;22.81;48.66;101328.97;5113639;28;20015;-44
2022/06/07 09:58:52;;;;;;;15.50;3.20;;;;;;;22.39;48.96;101304.41;5113775;28;20516;-54
2022/06/07 10:01:38;;;;;;;16.05;2.78;;;;;;;22.65;49.11;101314.66;5113592;28;20103;-55
2022/06/07 10:04:28;;;;;;;14.23;3.28;;;;;;;22.55;49.26;101319.66;5112463;28;20538;-55
2022/06/07 10:07:04;;;;;;;17.77;3.53;;;;;;;22.50;49.81;101326.53;5113901;28;20023;-53
2022/06/07 10:10:00;;;;;;;13.30;2.80;;;;;;;22.61;49.12;101316.28;5112387;28;20031;-45
2022/06/07 10:12:36;;;;;;;15.27;3.33;;;;;;;22.54;49.27;101319.63;5110972;28;20039;-52
2022/06/07 10:15:42;;;;;;;13.43;3.50;;;;;;;22.58;49.47;101335.44;5111871;28;20038;-54
2022/06/07 10:18:30;;;;;;;18.40;3.70;;;;;;;22.60;50.05;101325.00;5107692;28;20038;-54
2022/06/07 10:21:11;;;;;;;14.38;3.10;;;;;;;22.39;50.05;101325.31;5113692;28;20417;-49
2022/06/07 10:23:46;;;;;;;12.63;2.95;;;;;;;22.43;50.25;101330.69;5113818;28;20042;-49
2022/06/07 10:26:27;;;;;;;13.95;3.75;;;;;;;22.63;50.00;101316.34;5117425;28;20019;-49
2022/06/07 10:29:25;;;;;;;17.17;3.28;;;;;;;22.56;49.75;101318.81;5117270;28;20058;-55
2022/06/07 10:32:03;;;;;;;10.52;3.50;;;;;;;22.74;48.86;101318.38;5112875;28;20398;-48
2022/06/07 10:34:39;;;;;;;9.55;2.60;;;;;;;22.79;48.96;101310.63;5115902;28;20024;-51
2022/06/07 10:37:31;;;;;;;14.35;3.45;;;;;;;22.70;49.19;101311.31;5117013;28;20050;-55
2022/06/07 10:40:08;;;;;;;16.17;3.47;;;;;;;22.77;49.23;101314.94;5110954;28;20032;-55
2022/06/07 10:42:45;;;;;;;16.90;3.90;;;;;;;22.81;49.08;101321.13;5116070;28;20084;-49
2022/06/07 10:45:30;;;;;;;16.05;3.83;;;;;;;22.79;49.14;101328.06;5115721;28;20046;-54
2022/06/07 10:48:03;;;;;;;17.73;4.13;;;;;;;22.83;48.71;101322.94;5115641;28;20473;-47
2022/06/07 10:50:34;;;;;;;18.95;4.20;;;;;;;22.80;49.00;101327.19;5116977;28;20031;-49
2022/06/07 10:53:09;;;;;;;18.17;3.38;;;;;;;22.82;48.80;101320.28;5116105;28;20024;-49
2022/06/07 10:55:45;;;;;;;12.70;3.05;;;;;;;22.88;48.51;101313.47;5115602;28;20106;-50
2022/06/07 10:58:26;;;;;;;17.88;3.58;;;;;;;22.63;48.98;101305.91;5115680;28;20093;-54
2022/06/07 11:01:00;;;;;;;15.27;2.70;;;;;;;22.76;48.91;101313.19;5115598;28;20098;-55
2022/06/07 11:03:54;;;;;;;19.08;3.33;;;;;;;22.79;48.51;101315.88;5116202;28;20043;-53
2022/06/07 11:09:27;;;;;;;13.32;2.78;;;;;;;22.76;48.30;101326.25;5116305;27;20161;-45
2022/06/07 11:12:02;;;;;;;16.95;3.85;;;;;;;22.70;48.31;101315.63;5115186;28;20110;-51
2022/06/07 11:15:02;;;;;;;16.25;3.47;;;;;;;22.64;48.42;101321.59;5116282;28;20035;-45
2022/06/07 11:17:34;;;;;;;11.75;3.35;;;;;;;22.64;48.30;101313.75;5115148;28;20080;-49
2022/06/07 11:20:17;;;;;;;17.17;3.38;;;;;;;22.67;48.36;101326.91;5098271;28;20469;-54
2022/06/07 11:23:16;;;;;;;14.15;3.63;;;;;;;22.97;47.70;101325.00;5116346;28;20035;-55
2022/06/07 11:26:00;;;;;;;15.35;3.78;;;;;;;23.14;47.24;101335.84;5113755;28;20440;-48
2022/06/07 11:28:44;;;;;;;13.10;2.70;;;;;;;22.79;47.24;101335.91;5116125;27;20066;-48
2022/06/07 11:31:35;;;;;;;16.30;3.58;;;;;;;22.74;48.30;101341.03;5114862;28;20268;-45
2022/06/07 11:34:23;;;;;;;15.10;3.47;;;;;;;22.80;47.47;101341.19;5113104;28;20480;-55
2022/06/07 11:37:02;;;;;;;15.52;3.38;;;;;;;22.73;47.78;101345.38;5115139;28;20028;-55
2022/06/07 11:39:33;;;;;;;13.93;3.60;;;;;;;22.77;47.42;101328.03;5115822;28;20483;-54
2022/06/07 11:42:21;;;;;;;20.42;3.72;;;;;;;23.14;47.12;101339.34;5114642;28;20060;-50
2022/06/07 11:45:27;;;;;;;14.75;3.05;;;;;;;23.23;46.92;101333.47;5112885;27;20028;-49
2022/06/07 11:48:00;;;;;;;;;;;;;;;23.23;46.51;101343.94;5115199;28;20020;-49
2022/06/07 11:50:30;;;;;;;14.23;3.83;;;;;;;23.00;46.78;101338.16;5114406;28;20380;-48
2022/06/07 11:53:38;;;;;;;18.05;3.50;;;;;;;23.02;47.10;101341.66;5115441;28;20035;-50
2022/06/07 11:56:11;;;;;;;17.67;3.42;;;;;;;22.85;46.99;101344.78;5115497;27;20570;-49
2022/06/07 11:59:00;;;;;;;22.92;4.78;;;;;;;23.03;46.44;101344.34;5115382;28;20461;-55
2022/06/07 12:01:49;;;;;;;21.67;4.88;;;;;;;23.02;46.96;101350.41;5113863;28;20024;-47
2022/06/07 12:04:45;;;;;;;15.85;3.45;;;;;;;23.15;46.36;101351.59;5114073;28;20096;-54
2022/06/07 12:07:27;;;;;;;16.77;3.72;;;;;;;23.04;47.17;101337.34;5115333;28;20415;-56
2022/06/07 12:09:58;;;;;;;19.35;4.10;;;;;;;22.90;47.79;101337.94;5115232;28;20521;-47